Time;durP1;ratioP1;P1;durP2;ratioP2;P2;SDS_P1;SDS_P2;PMS_P1;PMS_P2;Temp;Humidity;BMP_temperature;BMP_pressure;BME280_temperature;BME280_humidity;BME280_pressure;Samples;Min_cycle;Max_cycle;Signal;HPM_P1;HPM_P2
2021/12/09 00:01:31;;;;;;;8.07;4.47;;;3.50;99.90;;;3.19;100.00;100543.00;4118384;28;20065;-75
2021/12/09 00:03:40;;;;;;;7.22;4.65;;;3.50;99.90;;;3.31;99.96;100547.31;4118113;28;20065;-76
2021/12/09 00:05:43;;;;;;;8.15;5.22;;;3.60;99.90;;;3.08;100.00;100540.34;4117554;28;20051;-75
2021/12/09 00:07:49;;;;;;;9.48;5.20;;;3.60;99.90;;;3.07;100.00;100550.88;4102284;28;20031;-76
2021/12/09 00:09:50;;;;;;;10.23;5.72;;;3.60;99.90;;;3.04;100.00;100541.53;4103622;28;20027;-75
2021/12/09 00:11:52;;;;;;;8.65;4.32;;;3.60;99.90;;;3.17;100.00;100546.63;4118307;28;20057;-76
2021/12/09 00:13:53;;;;;;;7.47;5.00;;;3.60;99.90;;;3.03;100.00;100546.84;4118358;28;20086;-76
2021/12/09 00:15:55;;;;;;;10.75;5.63;;;3.60;99.90;;;3.04;100.00;100541.53;4118489;28;20038;-76
2021/12/09 00:17:56;;;;;;;7.30;5.55;;;3.50;99.90;;;3.06;100.00;100539.63;4118327;28;20026;-76
2021/12/09 00:19:57;;;;;;;12.48;5.57;;;3.50;99.90;;;3.05;100.00;100548.38;4118363;28;20027;-76
2021/12/09 00:21:59;;;;;;;10.80;4.82;;;3.70;99.90;;;3.03;100.00;100534.66;4107656;28;20027;-76
2021/12/09 00:24:00;;;;;;;12.32;6.32;;;3.50;99.90;;;3.10;100.00;100540.25;4103661;28;20027;-75
2021/12/09 00:26:01;;;;;;;9.63;5.10;;;3.60;99.90;;;2.98;100.00;100534.16;4103342;28;20114;-76
2021/12/09 00:28:02;;;;;;;12.77;5.30;;;3.50;99.90;;;3.18;100.00;100546.53;4120215;28;20035;-76
2021/12/09 00:30:05;;;;;;;9.77;4.68;;;3.60;99.90;;;2.99;100.00;100525.38;4106638;28;20114;-75
2021/12/09 00:32:07;;;;;;;12.90;5.80;;;3.50;99.90;;;3.03;100.00;100533.81;4121547;28;20031;-76
2021/12/09 00:34:08;;;;;;;7.95;4.65;;;3.60;99.90;;;3.08;100.00;100522.09;4099600;29;20051;-76
2021/12/09 00:36:10;;;;;;;5.93;4.10;;;3.60;99.90;;;3.11;100.00;100524.47;4121414;28;20027;-75
2021/12/09 00:38:21;;;;;;;6.63;4.72;;;3.60;99.90;;;3.08;100.00;100527.31;4121252;28;20213;-76
2021/12/09 00:40:22;;;;;;;7.10;4.95;;;3.70;99.90;;;3.25;100.00;100524.31;4106680;28;20043;-75
2021/12/09 00:42:25;;;;;;;9.00;4.65;;;3.60;99.90;;;3.31;100.00;100528.22;4121188;28;20034;-76
2021/12/09 00:44:26;;;;;;;6.95;4.38;;;3.60;99.90;;;3.25;100.00;100529.50;4121267;28;20482;-76
2021/12/09 00:46:27;;;;;;;10.73;4.50;;;3.70;99.90;;;3.11;100.00;100526.25;4121494;28;20162;-76
2021/12/09 00:48:28;;;;;;;9.23;4.15;;;3.60;99.90;;;3.26;100.00;100536.38;4106610;28;20086;-76
2021/12/09 00:50:29;;;;;;;7.85;4.57;;;3.60;99.90;;;3.19;100.00;100523.91;4121345;28;20061;-75
2021/12/09 00:52:30;;;;;;;9.88;5.93;;;3.70;99.90;;;3.22;100.00;100534.13;4106315;28;20030;-76
2021/12/09 00:54:31;;;;;;;10.27;4.72;;;3.60;99.90;;;3.20;100.00;100536.81;4106368;28;20562;-76
2021/12/09 00:56:32;;;;;;;8.52;4.97;;;3.60;99.90;;;3.29;100.00;100541.34;4121050;28;20031;-76
2021/12/09 00:58:33;;;;;;;10.38;4.90;;;3.70;99.90;;;3.26;100.00;100528.56;4121216;28;20026;-76
2021/12/09 01:00:34;;;;;;;8.00;3.92;;;3.60;99.90;;;3.46;99.86;100528.84;4106239;28;20030;-76
2021/12/09 01:02:36;;;;;;;8.30;4.47;;;3.70;99.90;;;3.37;100.00;100538.19;4121019;28;20023;-75
2021/12/09 01:04:38;;;;;;;7.65;4.50;;;3.80;99.90;;;3.20;100.00;100520.34;4098632;29;20047;-75
2021/12/09 01:06:39;;;;;;;6.13;4.70;;;3.70;99.90;;;3.32;100.00;100529.88;4100070;29;20019;-76
2021/12/09 01:08:42;;;;;;;4.32;3.80;;;3.70;99.90;;;3.24;100.00;100540.88;4120937;28;20098;-76
2021/12/09 01:10:43;;;;;;;10.27;4.22;;;3.80;99.90;;;3.37;100.00;100537.34;4106065;28;20059;-76
2021/12/09 01:12:45;;;;;;;9.93;4.10;;;3.80;99.90;;;3.37;100.00;100537.34;4106174;28;20031;-76
2021/12/09 01:14:46;;;;;;;8.55;3.78;;;3.80;99.90;;;3.35;100.00;100540.91;4120773;28;20030;-76
2021/12/09 01:16:47;;;;;;;11.32;4.55;;;3.80;99.90;;;3.44;100.00;100544.59;4133739;28;20394;-76
2021/12/09 01:18:48;;;;;;;8.35;4.50;;;3.80;99.90;;;3.50;100.00;100554.56;4120942;28;20053;-76
2021/12/09 01:20:50;;;;;;;9.63;4.47;;;3.80;99.90;;;3.47;99.96;100544.34;4120936;28;20034;-76
2021/12/09 01:22:54;;;;;;;6.63;3.53;;;3.80;99.90;;;3.44;100.00;100551.56;4105960;28;20076;-76
2021/12/09 01:24:55;;;;;;;4.85;3.60;;;3.90;99.90;;;3.48;100.00;100556.47;4106016;28;20039;-76
2021/12/09 01:26:58;;;;;;;9.93;4.97;;;3.80;99.90;;;3.46;100.00;100552.31;4120635;28;20042;-76
2021/12/09 01:29:11;;;;;;;9.27;3.92;;;3.80;99.90;;;3.39;100.00;100548.50;4106061;28;20483;-76
2021/12/09 01:31:20;;;;;;;8.65;4.13;;;3.90;99.90;;;3.34;100.00;100554.06;4105940;28;20075;-76
2021/12/09 01:33:23;;;;;;;12.13;4.50;;;3.80;99.90;;;3.53;100.00;100550.88;4105787;28;20212;-76
2021/12/09 01:35:33;;;;;;;6.70;4.05;;;3.80;99.90;;;3.49;100.00;100559.91;4105923;29;20027;-76
2021/12/09 01:37:35;;;;;;;13.68;4.40;;;3.90;99.90;;;3.50;100.00;100554.56;4120491;28;20042;-76
2021/12/09 01:39:35;;;;;;;10.88;4.40;;;3.80;99.90;;;3.35;100.00;100551.31;4102808;29;20067;-76
2021/12/09 01:41:36;;;;;;;10.05;5.30;;;3.90;99.90;;;3.48;100.00;100551.25;4120478;28;20031;-76
2021/12/09 01:43:38;;;;;;;13.40;4.88;;;3.90;99.90;;;3.32;100.00;100546.34;4105853;28;20395;-76
2021/12/09 01:45:39;;;;;;;10.13;5.30;;;3.90;99.90;;;3.40;100.00;100564.03;4120532;28;20457;-76
2021/12/09 01:47:41;;;;;;;11.80;5.13;;;3.90;99.90;;;3.42;100.00;100571.72;4105591;29;20027;-76
2021/12/09 01:49:41;;;;;;;11.15;5.07;;;3.90;99.90;;;3.47;100.00;100564.38;4105737;28;20042;-76
2021/12/09 01:51:45;;;;;;;17.00;5.28;;;3.90;99.90;;;3.49;100.00;100572.94;4104369;28;20035;-76
2021/12/09 01:53:48;;;;;;;10.63;4.82;;;3.90;99.90;;;3.54;100.00;100582.06;4104321;29;20038;-76
2021/12/09 01:55:50;;;;;;;7.45;5.15;;;3.90;99.90;;;3.44;100.00;100585.47;4119889;28;20049;-76
2021/12/09 01:57:52;;;;;;;7.97;4.95;;;3.90;99.90;;;3.48;100.00;100582.53;4120468;28;20031;-76
2021/12/09 01:59:53;;;;;;;9.77;5.63;;;3.90;99.90;;;3.50;100.00;100577.19;4120559;28;20593;-76
2021/12/09 02:01:54;;;;;;;9.65;5.90;;;3.90;99.90;;;3.44;100.00;100573.25;4120213;28;20035;-76
2021/12/09 02:03:56;;;;;;;9.18;5.30;;;4.00;99.90;;;3.40;100.00;100579.69;4105135;28;20039;-76
2021/12/09 02:05:57;;;;;;;11.38;5.78;;;3.90;99.90;;;3.40;100.00;100566.63;4120358;28;20446;-76
2021/12/09 02:07:59;;;;;;;10.98;5.45;;;4.00;99.90;;;3.35;100.00;100566.97;4105477;29;20458;-76
2021/12/09 02:10:00;;;;;;;9.43;4.97;;;3.90;99.90;;;3.49;100.00;100568.56;4136287;28;20037;-75
2021/12/09 02:12:03;;;;;;;8.15;5.07;;;4.00;99.90;;;3.48;100.00;100576.47;4105043;28;20038;-76
2021/12/09 02:14:06;;;;;;;17.48;6.07;;;3.90;99.90;;;3.59;100.00;100576.50;4120265;28;20105;-76
2021/12/09 02:16:08;;;;;;;13.40;5.63;;;4.00;99.90;;;3.60;100.00;100571.19;4120137;28;20030;-76
2021/12/09 02:18:12;;;;;;;11.35;4.78;;;4.00;99.90;;;3.76;100.00;100565.63;4103998;28;20074;-76
2021/12/09 02:20:14;;;;;;;13.45;5.72;;;3.40;99.90;;;3.54;100.00;100565.59;4105121;28;20031;-76
2021/12/09 02:22:16;;;;;;;13.20;5.53;;;4.00;99.90;;;3.39;100.00;100557.16;4119942;28;20027;-76
2021/12/09 02:24:18;;;;;;;10.90;4.72;;;4.00;99.90;;;3.29;100.00;100566.59;4119826;28;20030;-76
2021/12/09 02:26:24;;;;;;;13.68;5.18;;;4.00;99.90;;;3.41;100.00;100576.09;4119753;28;20031;-76
2021/12/09 02:28:26;;;;;;;10.65;4.75;;;4.00;99.90;;;3.34;100.00;100574.91;4119595;28;20034;-76
2021/12/09 02:30:27;;;;;;;9.32;4.70;;;4.10;99.90;;;3.44;100.00;100573.25;4103860;28;20038;-76
2021/12/09 02:32:28;;;;;;;10.00;5.03;;;3.90;99.90;;;3.35;100.00;100569.56;4097171;29;20027;-76
2021/12/09 02:34:29;;;;;;;11.02;5.05;;;4.00;99.90;;;3.39;100.00;100579.78;4104909;28;20495;-76
2021/12/09 02:36:36;;;;;;;11.38;5.20;;;3.90;99.90;;;3.63;100.00;100591.81;4119662;28;20483;-76
2021/12/09 02:38:43;;;;;;;14.95;4.90;;;4.00;99.90;;;3.67;100.00;100585.44;4119575;28;20034;-76
2021/12/09 02:40:44;;;;;;;9.73;5.35;;;4.00;99.90;;;3.58;100.00;100580.06;4127383;28;20019;-76
2021/12/09 02:42:47;;;;;;;10.07;5.00;;;4.00;99.90;;;3.57;100.00;100573.19;4119715;28;20077;-76
2021/12/09 02:44:49;;;;;;;11.48;5.38;;;4.10;99.90;;;3.56;100.00;100571.50;4119489;28;20034;-76
2021/12/09 02:46:54;;;;;;;10.25;4.70;;;4.00;99.90;;;3.52;100.00;100575.31;4119614;28;20066;-76
2021/12/09 02:48:55;;;;;;;13.15;5.43;;;4.10;99.90;;;3.51;100.00;100591.91;4119486;28;20026;-76
2021/12/09 02:50:56;;;;;;;9.48;4.85;;;4.10;99.90;;;3.43;100.00;100587.28;4103820;28;20475;-76
2021/12/09 02:52:57;;;;;;;11.63;4.57;;;4.10;99.90;;;3.51;100.00;100584.06;4119684;28;20474;-76
2021/12/09 02:54:58;;;;;;;7.57;3.80;;;4.10;99.90;;;3.50;100.00;100574.56;4119573;28;20035;-76
2021/12/09 02:57:05;;;;;;;6.95;3.47;;;4.10;99.90;;;3.53;100.00;100579.56;4119290;28;20438;-76
2021/12/09 02:59:08;;;;;;;8.50;3.92;;;4.10;99.90;;;3.47;100.00;100575.66;4119310;28;20054;-76
2021/12/09 03:01:22;;;;;;;10.45;4.03;;;4.10;99.90;;;3.66;100.00;100588.13;4104686;28;20019;-76
2021/12/09 03:03:23;;;;;;;10.40;4.47;;;4.10;99.90;;;3.79;100.00;100584.47;4119236;28;20086;-76
2021/12/09 03:05:25;;;;;;;14.10;4.32;;;4.20;99.90;;;3.83;100.00;100592.91;4103132;28;20051;-76
2021/12/09 03:07:33;;;;;;;8.00;3.72;;;4.90;99.90;;;3.95;99.73;100585.91;4103227;29;20503;-76
2021/12/09 03:09:34;;;;;;;8.27;4.25;;;4.40;99.90;;;3.80;100.00;100588.75;4104568;28;20023;-76
2021/12/09 03:11:36;;;;;;;9.30;3.97;;;4.30;99.90;;;4.02;99.57;100593.16;4104270;28;20123;-76
2021/12/09 03:13:40;;;;;;;10.90;4.40;;;4.30;99.90;;;4.02;99.40;100580.13;4119169;28;20030;-76
2021/12/09 03:15:40;;;;;;;8.17;4.37;;;4.40;99.90;;;3.90;100.00;100592.34;4119248;28;20035;-76
2021/12/09 03:17:43;;;;;;;9.93;4.35;;;4.40;99.90;;;3.86;100.00;100590.06;4104408;28;20035;-76
2021/12/09 03:19:45;;;;;;;14.70;5.00;;;4.30;99.90;;;3.65;100.00;100591.69;4104378;28;20027;-76
2021/12/09 03:21:47;;;;;;;10.80;4.65;;;4.30;99.90;;;3.61;100.00;100590.28;4104193;29;20082;-76
2021/12/09 03:23:49;;;;;;;10.63;5.40;;;4.30;99.90;;;3.74;100.00;100591.00;4119265;28;20027;-76
2021/12/09 03:25:50;;;;;;;11.95;5.68;;;4.30;99.90;;;3.71;100.00;100593.81;4104184;28;20035;-76
2021/12/09 03:27:51;;;;;;;9.23;4.65;;;4.20;99.90;;;3.76;100.00;100586.50;4104361;28;20034;-76
2021/12/09 03:29:52;;;;;;;9.07;4.40;;;4.30;99.90;;;3.88;100.00;100589.00;4118988;28;20122;-76
2021/12/09 03:31:57;;;;;;;8.90;4.50;;;4.30;99.90;;;3.74;100.00;100583.16;4119173;28;20065;-76
2021/12/09 03:33:59;;;;;;;11.27;5.55;;;4.30;99.90;;;3.85;100.00;100584.00;4119016;28;20058;-76
2021/12/09 03:36:05;;;;;;;8.25;4.72;;;4.40;99.90;;;3.92;100.00;100597.41;4130197;28;20109;-76
2021/12/09 03:38:06;;;;;;;8.73;4.72;;;4.30;99.90;;;3.91;100.00;100591.38;4118682;28;20027;-75
2021/12/09 03:40:08;;;;;;;9.50;4.63;;;4.30;99.90;;;3.76;100.00;100583.91;4104221;28;20150;-76
2021/12/09 03:42:15;;;;;;;12.85;5.15;;;4.30;99.90;;;3.74;100.00;100588.38;4103909;28;20058;-76
2021/12/09 03:44:16;;;;;;;14.10;5.40;;;4.40;99.90;;;3.80;100.00;100580.09;4118672;28;20093;-76
2021/12/09 03:46:18;;;;;;;17.20;6.00;;;4.30;99.90;;;3.79;100.00;100578.44;4104018;29;20399;-76
2021/12/09 03:48:19;;;;;;;14.45;5.90;;;4.30;99.90;;;3.73;100.00;100586.75;4119014;28;20130;-76
2021/12/09 03:50:20;;;;;;;11.40;5.35;;;4.70;99.90;;;3.66;100.00;100573.31;4102795;28;20039;-76
2021/12/09 03:52:21;;;;;;;9.50;5.18;;;4.30;99.90;;;3.66;100.00;100572.50;4102900;29;20034;-76
2021/12/09 03:54:25;;;;;;;11.40;5.45;;;4.30;99.90;;;3.60;100.00;100581.63;4118629;28;20043;-76
2021/12/09 03:56:26;;;;;;;9.00;4.30;;;4.20;99.90;;;3.54;100.00;100568.19;4134448;28;20035;-76
2021/12/09 03:58:27;;;;;;;9.93;4.30;;;4.20;99.90;;;3.56;100.00;100568.91;4104039;28;20063;-77
2021/12/09 04:00:29;;;;;;;10.00;5.88;;;4.10;99.90;;;3.55;100.00;100577.69;4103974;29;20035;-76
2021/12/09 04:02:30;;;;;;;6.75;4.38;;;4.10;99.90;;;3.51;100.00;100568.44;4103617;28;20043;-76
2021/12/09 04:04:31;;;;;;;11.00;4.63;;;4.10;99.90;;;3.61;100.00;100567.63;4118712;28;20050;-76
2021/12/09 04:06:33;;;;;;;14.82;5.68;;;4.20;99.90;;;3.66;100.00;100572.50;4103932;28;20032;-76
2021/12/09 04:08:34;;;;;;;10.90;4.65;;;4.10;99.90;;;3.60;100.00;100562.53;4103862;28;20023;-76
2021/12/09 04:10:35;;;;;;;18.05;5.50;;;4.10;99.90;;;3.54;100.00;100561.22;4118293;28;20036;-76
2021/12/09 04:12:36;;;;;;;15.23;5.05;;;4.10;99.90;;;3.68;100.00;100571.41;4103969;28;20086;-76
2021/12/09 04:14:38;;;;;;;9.00;4.45;;;4.10;99.90;;;3.90;100.00;100578.44;4118583;28;20499;-76
2021/12/09 04:16:39;;;;;;;12.75;4.97;;;4.20;99.90;;;3.72;100.00;100572.03;4103814;28;20110;-76
2021/12/09 04:18:42;;;;;;;10.93;4.50;;;4.20;99.90;;;3.70;100.00;100577.34;4103757;28;20076;-76
2021/12/09 04:20:43;;;;;;;15.23;4.32;;;4.20;99.90;;;3.75;100.00;100575.25;4103921;28;20506;-76
2021/12/09 04:22:48;;;;;;;7.18;4.35;;;4.20;99.90;;;3.80;100.00;100570.50;4118490;28;20027;-76
2021/12/09 04:24:52;;;;;;;10.55;4.20;;;4.30;99.90;;;3.97;100.00;100560.56;4103786;29;20031;-76
2021/12/09 04:26:54;;;;;;;6.32;4.00;;;4.30;99.90;;;3.74;100.00;100573.56;4118224;28;20073;-76
2021/12/09 04:28:55;;;;;;;12.43;6.10;;;4.30;99.90;;;3.84;100.00;100563.25;4118615;28;20031;-76
2021/12/09 04:30:56;;;;;;;10.00;5.63;;;4.30;99.90;;;3.80;100.00;100572.25;4103785;28;20442;-76
2021/12/09 04:32:56;;;;;;;13.75;5.95;;;4.30;99.90;;;3.76;100.00;100571.66;4118524;28;20058;-76
2021/12/09 04:34:58;;;;;;;10.50;4.43;;;4.30;99.90;;;3.72;100.00;100570.25;4118317;28;20109;-76
2021/12/09 04:37:00;;;;;;;14.70;4.57;;;4.30;99.90;;;3.74;100.00;100562.28;4118601;28;20394;-76
2021/12/09 04:39:02;;;;;;;16.65;5.63;;;4.30;99.90;;;3.72;100.00;100572.03;4118520;28;20463;-76
2021/12/09 04:41:04;;;;;;;8.68;4.95;;;4.30;99.90;;;3.95;100.00;100568.47;4118138;28;20082;-76
2021/12/09 04:43:05;;;;;;;12.30;5.70;;;4.30;99.90;;;4.01;100.00;100570.63;4118254;28;20542;-77
2021/12/09 04:45:08;;;;;;;16.70;4.18;;;4.40;99.90;;;4.05;99.78;100576.44;4092938;29;20019;-77
2021/12/09 04:47:09;;;;;;;17.10;5.03;;;4.40;99.90;;;4.01;100.00;100570.63;4103712;28;20055;-77
2021/12/09 04:49:10;;;;;;;13.15;4.40;;;3.50;99.90;;;4.12;100.00;100557.56;4102384;28;20070;-76
2021/12/09 04:51:11;;;;;;;6.72;3.67;;;4.50;99.90;;;4.09;99.75;100555.19;4103436;28;20062;-76
2021/12/09 04:53:12;;;;;;;17.63;3.83;;;4.50;99.90;;;3.89;99.98;100550.69;4118523;28;20058;-76
2021/12/09 04:55:14;;;;;;;10.75;4.07;;;4.50;99.90;;;4.18;99.86;100559.69;4118358;28;20038;-76
2021/12/09 04:57:15;;;;;;;8.38;3.33;;;4.50;99.90;;;4.17;99.10;100547.63;4118085;28;20123;-77
2021/12/09 04:59:16;;;;;;;10.93;3.65;;;4.50;99.90;;;4.00;100.00;100555.09;4102277;29;20391;-77
2021/12/09 05:01:19;;;;;;;8.73;3.55;;;4.60;99.90;;;4.09;99.87;100562.22;4102358;28;20047;-77
2021/12/09 05:03:20;;;;;;;11.55;3.65;;;4.60;99.90;;;4.22;99.03;100568.13;4102269;29;20031;-76
2021/12/09 05:05:21;;;;;;;12.77;4.55;;;4.50;99.90;;;4.18;100.00;100562.31;4091487;29;20586;-76
2021/12/09 05:07:22;;;;;;;13.18;5.00;;;4.70;99.90;;;4.09;100.00;100560.41;4101459;29;20059;-77
2021/12/09 05:09:24;;;;;;;8.73;3.13;;;4.70;99.90;;;4.05;100.00;100568.63;4134427;28;20031;-76
2021/12/09 05:13:35;;;;;;;11.02;3.33;;;4.60;99.90;;;4.09;100.00;100576.06;4118667;28;20041;-76
2021/12/09 05:15:36;;;;;;;9.23;3.42;;;4.60;99.90;;;4.10;100.00;100567.31;4106300;28;20070;-76
2021/12/09 05:17:37;;;;;;;10.20;3.00;;;4.40;99.90;;;4.06;100.00;100570.28;4105058;29;20549;-76
2021/12/09 05:19:38;;;;;;;11.90;3.63;;;4.60;99.90;;;4.04;100.00;100557.34;4106242;28;20510;-76
2021/12/09 05:21:39;;;;;;;14.00;3.90;;;4.60;99.90;;;4.04;100.00;100570.38;4106153;28;20106;-76
2021/12/09 05:23:41;;;;;;;5.13;3.22;;;4.70;99.90;;;4.19;100.00;100569.19;4106244;29;20028;-77
2021/12/09 05:25:43;;;;;;;8.25;3.22;;;4.60;99.90;;;4.06;100.00;100571.09;4105961;28;20066;-77
2021/12/09 05:27:44;;;;;;;6.22;2.83;;;4.60;99.90;;;4.09;100.00;100563.03;4120930;28;20054;-77
2021/12/09 05:29:52;;;;;;;7.72;2.95;;;4.60;99.90;;;4.14;100.00;100581.78;4106072;28;20041;-77
2021/12/09 05:32:10;;;;;;;14.10;4.18;;;4.70;99.90;;;4.07;100.00;100572.75;4120152;28;20027;-76
2021/12/09 05:34:11;;;;;;;11.18;3.40;;;4.70;99.90;;;4.06;100.00;100565.06;4106060;29;20035;-77
2021/12/09 05:36:12;;;;;;;8.80;3.47;;;4.60;99.90;;;4.08;100.00;100571.81;4120722;28;20034;-77
2021/12/09 05:38:13;;;;;;;9.45;3.20;;;4.60;99.90;;;4.12;100.00;100578.44;4120668;28;20123;-77
2021/12/09 05:40:15;;;;;;;9.15;3.28;;;4.60;99.90;;;4.14;100.00;100576.56;4105694;28;20035;-77
2021/12/09 05:42:18;;;;;;;10.82;3.53;;;4.70;99.90;;;4.17;100.00;100554.59;4120698;28;20030;-76
2021/12/09 05:44:19;;;;;;;10.43;3.20;;;4.70;99.90;;;4.12;100.00;100562.78;4120580;28;20031;-76
2021/12/09 05:46:22;;;;;;;7.18;2.50;;;4.50;99.90;;;4.14;100.00;100566.13;4105673;29;20521;-76
2021/12/09 05:48:23;;;;;;;8.57;4.00;;;4.70;99.90;;;4.18;100.00;100567.53;4120551;28;20466;-76
2021/12/09 05:50:24;;;;;;;10.43;3.38;;;4.70;99.90;;;4.29;100.00;100551.88;4105709;29;20488;-76
2021/12/09 05:52:25;;;;;;;6.97;3.17;;;4.70;99.90;;;4.23;100.00;100549.75;4120486;28;20042;-76
2021/12/09 05:54:26;;;;;;;12.88;3.17;;;4.80;99.90;;;4.30;100.00;100561.34;4105567;28;20558;-76
2021/12/09 05:56:27;;;;;;;11.00;3.53;;;4.80;99.90;;;4.53;100.00;100551.72;4104123;28;20122;-77
2021/12/09 05:58:28;;;;;;;11.40;4.30;;;4.90;99.90;;;4.47;100.00;100557.44;4096734;29;20031;-76
2021/12/09 06:00:29;;;;;;;11.55;3.53;;;4.90;99.90;;;4.46;100.00;100548.75;4105667;29;20031;-76
2021/12/09 06:02:32;;;;;;;10.70;3.03;;;4.90;99.90;;;4.51;100.00;100548.38;4105478;29;20023;-77
2021/12/09 06:04:34;;;;;;;10.23;4.63;;;4.90;99.90;;;4.45;100.00;100539.25;4105139;28;20059;-76
2021/12/09 06:06:38;;;;;;;9.85;3.20;;;5.00;99.90;;;4.52;100.00;100549.22;4120337;28;20049;-76
2021/12/09 06:08:40;;;;;;;7.47;3.22;;;4.90;99.90;;;4.66;100.00;100551.56;4119836;28;20030;-77
2021/12/09 06:10:41;;;;;;;12.20;3.88;;;5.00;99.90;;;4.48;100.00;100549.44;4088209;28;20028;-77
2021/12/09 06:12:42;;;;;;;15.13;4.28;;;4.90;99.90;;;4.53;100.00;100559.56;4120275;28;20039;-77
2021/12/09 06:14:43;;;;;;;10.32;4.20;;;5.00;99.90;;;4.68;98.83;100560.94;4120041;28;20031;-77
2021/12/09 06:16:45;;;;;;;7.60;4.30;;;5.00;99.90;;;4.58;99.21;100564.41;4103954;28;20027;-77
2021/12/09 06:18:46;;;;;;;9.77;4.85;;;5.30;99.90;;;4.46;100.00;100550.53;4104130;28;20118;-76
2021/12/09 06:20:47;;;;;;;9.27;4.13;;;4.90;99.90;;;4.53;100.00;100556.94;4105277;28;20411;-77
2021/12/09 06:22:48;;;;;;;11.70;4.65;;;4.90;99.90;;;4.40;100.00;100559.69;4119902;28;20035;-77
2021/12/09 06:24:48;;;;;;;11.43;4.30;;;4.90;99.90;;;4.57;99.52;100552.31;4105070;28;20023;-77
2021/12/09 06:26:49;;;;;;;10.15;4.28;;;4.90;99.90;;;4.46;98.88;100533.09;4103268;28;20035;-77
2021/12/09 06:28:50;;;;;;;9.15;4.38;;;5.00;99.90;;;4.44;99.87;100542.84;4103659;29;20118;-76
2021/12/09 06:30:51;;;;;;;11.93;5.03;;;4.80;99.90;;;4.42;100.00;100542.09;4105107;28;20058;-77
2021/12/09 06:32:53;;;;;;;8.95;4.80;;;5.00;99.90;;;4.45;100.00;100549.69;4119747;28;20472;-76
2021/12/09 06:34:53;;;;;;;11.65;4.95;;;5.00;99.90;;;4.39;100.00;100552.78;4102569;29;20506;-77
2021/12/09 06:36:54;;;;;;;9.35;5.05;;;5.00;99.90;;;4.33;100.00;100555.09;4119686;28;20030;-76
2021/12/09 06:38:55;;;;;;;9.30;3.83;;;5.00;99.90;;;4.32;100.00;100554.25;4095426;29;20038;-76
2021/12/09 06:40:57;;;;;;;12.32;4.22;;;5.00;99.90;;;4.37;100.00;100552.09;4114651;28;20046;-77
2021/12/09 06:42:58;;;;;;;11.80;3.78;;;5.10;99.90;;;4.52;100.00;100557.03;4103605;29;20023;-76
2021/12/09 06:44:59;;;;;;;7.07;2.92;;;5.10;99.90;;;4.46;100.00;100540.91;4104962;29;20067;-76
2021/12/09 06:47:00;;;;;;;5.85;3.55;;;5.10;99.90;;;4.48;100.00;100539.00;4104827;29;20049;-76
2021/12/09 06:49:02;;;;;;;8.13;3.28;;;5.10;99.90;;;4.71;100.00;100554.63;4119668;28;20034;-76
2021/12/09 06:51:05;;;;;;;12.18;2.95;;;5.20;99.90;;;4.76;100.00;100547.25;4104618;28;20118;-76
2021/12/09 06:53:08;;;;;;;6.75;3.90;;;5.20;99.90;;;4.79;100.00;100547.00;4120153;28;20030;-76
2021/12/09 06:55:14;;;;;;;9.02;4.10;;;5.30;99.90;;;4.71;100.00;100545.03;4105248;28;20031;-76
2021/12/09 06:57:15;;;;;;;6.55;3.28;;;5.20;99.90;;;4.63;100.00;100530.91;4120235;28;20081;-77
2021/12/09 06:59:16;;;;;;;7.60;2.90;;;5.20;99.90;;;4.62;100.00;100531.84;4105187;28;20466;-77
2021/12/09 07:01:17;;;;;;;9.07;2.78;;;5.20;99.90;;;4.62;100.00;100540.53;4105502;28;20031;-76
2021/12/09 07:03:21;;;;;;;14.88;5.88;;;5.20;99.90;;;4.60;100.00;100534.59;4120194;28;20023;-77
2021/12/09 07:05:26;;;;;;;8.32;3.30;;;5.30;99.90;;;4.61;100.00;100535.41;4119787;28;20054;-77
2021/12/09 07:07:27;;;;;;;13.95;3.90;;;5.30;99.90;;;4.67;100.00;100540.97;4119806;28;20074;-77
2021/12/09 07:09:29;;;;;;;10.88;3.30;;;5.30;99.90;;;4.77;100.00;100538.47;4105235;28;20086;-77
2021/12/09 07:11:32;;;;;;;12.43;3.58;;;5.30;99.90;;;4.86;100.00;100538.56;4104990;28;20092;-77
2021/12/09 07:13:33;;;;;;;8.23;3.22;;;5.40;99.90;;;4.89;100.00;100534.84;4119409;28;20503;-78
2021/12/09 07:15:34;;;;;;;11.07;4.43;;;5.40;99.90;;;4.98;100.00;100536.72;4120175;28;20027;-77
2021/12/09 07:17:35;;;;;;;11.23;3.10;;;5.40;99.90;;;5.11;100.00;100539.97;4104421;28;20110;-78
2021/12/09 07:19:37;;;;;;;15.45;4.32;;;5.50;99.90;;;5.03;100.00;100530.16;4104271;28;20031;-77
2021/12/09 07:21:38;;;;;;;22.27;16.02;;;5.60;99.90;;;5.03;100.00;100535.41;4118912;28;20015;-76
2021/12/09 07:23:39;;;;;;;14.02;8.73;;;5.60;99.90;;;5.03;100.00;100530.16;4119142;28;20080;-81
2021/12/09 07:25:40;;;;;;;10.25;4.25;;;5.60;99.90;;;5.06;100.00;100534.31;4104013;28;20027;-81
2021/12/09 07:27:41;;;;;;;12.88;4.25;;;5.60;99.90;;;5.14;100.00;100531.88;4104176;28;20034;-80
2021/12/09 07:29:43;;;;;;;9.25;3.28;;;5.70;99.90;;;5.12;100.00;100528.56;4118935;28;20081;-81
2021/12/09 07:31:44;;;;;;;7.95;4.18;;;5.70;99.90;;;5.13;100.00;100530.25;4104163;28;20027;-80
2021/12/09 07:33:45;;;;;;;8.15;3.53;;;5.70;99.90;;;5.13;100.00;100534.63;4102857;28;20118;-81
2021/12/09 07:35:46;;;;;;;8.20;3.22;;;5.70;99.90;;;5.22;100.00;100546.94;4102540;28;20106;-80
2021/12/09 07:37:47;;;;;;;10.73;3.15;;;5.80;99.90;;;5.14;100.00;100526.66;4118759;28;20023;-80
2021/12/09 07:39:48;;;;;;;10.30;3.20;;;5.70;99.90;;;5.22;100.00;100524.25;4104085;29;20106;-81
2021/12/09 07:41:49;;;;;;;8.32;3.25;;;5.90;99.90;;;5.13;100.00;100518.94;4118659;28;20022;-80
2021/12/09 07:43:50;;;;;;;13.23;3.83;;;5.80;99.90;;;5.17;100.00;100520.38;4118826;28;20031;-81
2021/12/09 07:45:51;;;;;;;9.30;4.35;;;5.80;99.90;;;5.15;100.00;100525.72;4118778;28;20460;-81
2021/12/09 07:47:52;;;;;;;29.58;13.32;;;5.80;99.90;;;5.07;100.00;100519.47;4118689;28;20038;-81
2021/12/09 07:49:53;;;;;;;47.78;19.48;;;5.80;99.90;;;5.02;100.00;100522.44;4118840;28;20085;-80
2021/12/09 07:51:55;;;;;;;51.53;21.25;;;5.70;99.90;;;5.09;100.00;100522.75;4103990;28;20035;-81
2021/12/09 07:53:59;;;;;;;39.65;16.60;;;5.70;99.90;;;5.21;100.00;100526.97;4118744;28;20031;-80
2021/12/09 07:55:59;;;;;;;25.77;11.03;;;5.90;99.90;;;5.21;100.00;100519.97;4102355;28;20067;-81
2021/12/09 07:58:00;;;;;;;25.67;11.48;;;5.70;99.90;;;5.26;100.00;100528.25;4102849;29;20031;-81
2021/12/09 08:00:06;;;;;;;23.48;9.13;;;6.00;99.90;;;5.37;100.00;100530.81;4118763;28;20102;-81
2021/12/09 08:02:07;;;;;;;15.05;7.13;;;6.40;99.90;;;5.32;100.00;100527.75;4118322;28;20466;-80
2021/12/09 08:04:10;;;;;;;11.95;5.45;;;5.90;99.90;;;5.29;100.00;100529.78;4118603;28;20053;-80
2021/12/09 08:06:13;;;;;;;10.10;4.35;;;5.90;99.90;;;5.25;100.00;100524.00;4118608;28;20081;-80
2021/12/09 08:08:14;;;;;;;14.05;4.95;;;5.80;99.90;;;5.40;100.00;100520.09;4118488;28;20506;-81
2021/12/09 08:10:17;;;;;;;10.70;4.75;;;5.90;99.90;;;5.31;100.00;100539.19;4103627;28;20117;-80
2021/12/09 08:12:18;;;;;;;7.93;4.13;;;5.90;99.90;;;5.24;100.00;100537.19;4118425;28;20462;-80
2021/12/09 08:14:20;;;;;;;9.73;4.57;;;5.90;99.90;;;5.23;100.00;100538.97;4124942;28;20035;-81
2021/12/09 08:16:21;;;;;;;5.50;3.75;;;5.90;99.90;;;5.12;100.00;100523.34;4103752;28;20395;-80
2021/12/09 08:20:23;;;;;;;14.13;4.53;;;5.80;99.90;;;5.29;100.00;100538.47;4103780;28;20074;-81
2021/12/09 08:22:24;;;;;;;9.05;3.70;;;5.90;99.90;;;5.41;100.00;100537.44;4103703;28;20108;-81
2021/12/09 08:24:25;;;;;;;7.82;3.25;;;5.70;99.90;;;5.40;100.00;100543.66;4118474;28;20081;-80
2021/12/09 08:26:26;;;;;;;11.75;3.80;;;6.00;99.90;;;5.45;100.00;100551.09;4103392;29;20483;-81
2021/12/09 08:28:27;;;;;;;11.15;3.95;;;6.10;99.90;;;5.53;100.00;100549.50;4118231;28;20062;-81
2021/12/09 08:30:28;;;;;;;9.35;3.55;;;6.10;99.90;;;5.61;100.00;100558.50;4124041;28;20034;-80
2021/12/09 08:32:29;;;;;;;9.27;4.35;;;6.20;99.90;;;5.61;100.00;100545.41;4102485;29;20075;-80
2021/12/09 08:34:30;;;;;;;12.30;4.22;;;6.20;99.90;;;5.50;100.00;100547.13;4118337;28;20034;-81